Time;durP1;ratioP1;P1;durP2;ratioP2;P2;SDS_P1;SDS_P2;PMS_P1;PMS_P2;Temp;Humidity;BMP_temperature;BMP_pressure;BME280_temperature;BME280_humidity;BME280_pressure;Samples;Min_cycle;Max_cycle;Signal;HPM_P1;HPM_P2
2021/10/09 00:00:51;;;;;;;31.05;25.65;;;11.90;99.90;;;;;;5084989;28;20035;-75
2021/10/09 00:03:18;;;;;;;30.13;23.20;;;11.90;99.90;;;;;;5085343;28;20031;-74
2021/10/09 00:05:44;;;;;;;30.48;24.23;;;11.90;99.90;;;;;;5049600;28;20396;-75
2021/10/09 00:08:14;;;;;;;31.50;25.02;;;11.80;99.90;;;;;;5085150;28;20049;-75
2021/10/09 00:10:42;;;;;;;29.80;22.33;;;11.80;99.90;;;;;;5082796;28;20523;-75
2021/10/09 00:13:09;;;;;;;27.58;22.88;;;11.80;99.90;;;;;;5108083;27;20044;-75
2021/10/09 00:15:36;;;;;;;29.13;22.67;;;11.70;99.90;;;;;;5066466;27;20535;-75
2021/10/09 00:18:02;;;;;;;33.95;24.95;;;11.70;99.90;;;;;;5085376;28;20043;-75
2021/10/09 00:20:30;;;;;;;35.05;25.75;;;11.70;99.90;;;;;;5084461;28;20702;-75
2021/10/09 00:22:57;;;;;;;34.80;26.58;;;11.70;99.90;;;;;;5084569;28;20575;-75
2021/10/09 00:25:24;;;;;;;31.98;24.55;;;11.70;99.90;;;;;;5083852;28;20043;-75
2021/10/09 00:27:51;;;;;;;35.38;26.67;;;11.70;99.90;;;;;;5104685;28;20043;-75
2021/10/09 00:30:18;;;;;;;35.17;26.73;;;11.70;99.90;;;;;;5067337;28;20043;-74
2021/10/09 00:32:45;;;;;;;31.80;23.77;;;11.70;99.90;;;;;;5081441;27;20027;-74
2021/10/09 00:35:11;;;;;;;36.67;27.13;;;11.70;99.90;;;;;;5066075;28;20035;-74
2021/10/09 00:37:38;;;;;;;41.53;30.90;;;11.70;99.90;;;;;;5084394;28;20500;-74
2021/10/09 00:40:05;;;;;;;36.95;27.38;;;11.70;99.90;;;;;;5080336;28;20047;-74
2021/10/09 00:42:31;;;;;;;36.70;27.80;;;11.70;99.90;;;;;;5104143;28;20046;-74
2021/10/09 00:44:58;;;;;;;32.28;25.75;;;11.70;99.90;;;;;;5065139;28;20059;-74
2021/10/09 00:47:25;;;;;;;40.35;31.63;;;11.70;99.90;;;;;;5085558;28;20396;-74
2021/10/09 00:49:52;;;;;;;35.70;27.67;;;11.70;99.90;;;;;;5098971;28;20047;-74
2021/10/09 00:52:19;;;;;;;37.45;30.02;;;11.70;99.90;;;;;;5068948;28;20047;-74
2021/10/09 00:54:47;;;;;;;40.75;30.05;;;11.60;99.90;;;;;;5080959;28;20030;-74
2021/10/09 00:57:18;;;;;;;36.50;27.52;;;11.60;99.90;;;;;;5079920;28;20032;-74
2021/10/09 00:59:48;;;;;;;44.00;30.23;;;11.60;99.90;;;;;;5100985;28;20027;-74
2021/10/09 01:02:16;;;;;;;37.92;30.00;;;11.60;99.90;;;;;;5066979;28;20039;-75
2021/10/09 01:04:44;;;;;;;33.08;27.08;;;11.50;99.90;;;;;;5101959;27;20031;-74
2021/10/09 01:07:10;;;;;;;33.53;26.83;;;11.50;99.90;;;;;;5109563;27;20097;-74
2021/10/09 01:09:38;;;;;;;36.80;28.73;;;11.50;99.90;;;;;;5085959;28;20050;-74
2021/10/09 01:12:05;;;;;;;37.47;30.17;;;11.40;99.90;;;;;;5087238;27;20039;-74
2021/10/09 01:14:32;;;;;;;32.10;27.13;;;11.40;99.90;;;;;;5104466;27;20035;-74
2021/10/09 01:16:59;;;;;;;32.17;24.45;;;11.40;99.90;;;;;;5084934;28;20484;-74
2021/10/09 01:19:26;;;;;;;33.90;25.75;;;11.40;99.90;;;;;;5071229;27;20047;-74
2021/10/09 01:21:54;;;;;;;39.63;29.92;;;11.30;99.90;;;;;;5090340;27;20094;-74
2021/10/09 01:24:23;;;;;;;37.58;29.48;;;11.20;99.90;;;;;;5088326;27;20399;-74
2021/10/09 01:26:50;;;;;;;41.20;30.60;;;11.20;99.90;;;;;;5073590;27;20036;-74
2021/10/09 01:29:22;;;;;;;36.35;27.35;;;11.20;99.90;;;;;;5068823;28;20059;-74
2021/10/09 01:31:52;;;;;;;41.40;31.48;;;11.20;99.90;;;;;;5070205;27;20036;-74
2021/10/09 01:34:24;;;;;;;45.95;33.70;;;11.20;99.90;;;;;;5069962;27;20039;-74
2021/10/09 01:36:55;;;;;;;39.80;30.85;;;11.20;99.90;;;;;;5077490;27;20523;-74
2021/10/09 01:39:24;;;;;;;42.75;31.65;;;11.10;99.90;;;;;;5069279;27;20789;-74
2021/10/09 01:41:52;;;;;;;41.53;31.25;;;11.10;99.90;;;;;;5071607;27;20044;-74
2021/10/09 01:44:24;;;;;;;37.00;28.13;;;11.10;99.90;;;;;;5086922;27;20395;-74
2021/10/09 01:46:54;;;;;;;37.95;28.95;;;11.10;99.90;;;;;;5111742;27;20479;-74
2021/10/09 01:49:21;;;;;;;36.42;28.00;;;11.00;99.90;;;;;;5070343;27;20035;-74
2021/10/09 01:51:49;;;;;;;39.80;30.25;;;11.00;99.90;;;;;;5088009;27;20079;-74
2021/10/09 01:54:16;;;;;;;39.78;30.45;;;11.00;99.90;;;;;;5067578;27;20488;-74
2021/10/09 01:56:42;;;;;;;41.17;29.80;;;10.90;99.90;;;;;;5087323;28;20047;-74
2021/10/09 01:59:10;;;;;;;37.10;28.83;;;10.90;99.90;;;;;;5055780;27;20050;-74
2021/10/09 02:01:42;;;;;;;41.60;30.85;;;10.90;99.90;;;;;;5086444;27;20046;-74
2021/10/09 02:04:08;;;;;;;40.50;30.80;;;10.90;99.90;;;;;;5105595;27;20036;-74
2021/10/09 02:06:42;;;;;;;37.13;27.67;;;10.80;99.90;;;;;;5087700;27;20043;-74
2021/10/09 02:09:10;;;;;;;44.70;31.48;;;10.80;99.90;;;;;;5070535;27;20515;-74
2021/10/09 02:11:40;;;;;;;42.97;31.55;;;10.80;99.90;;;;;;5109046;27;20058;-74
2021/10/09 02:28:10;;;;;;;38.35;26.83;;;10.60;99.90;;;;;;5104372;27;20572;-74
2021/10/09 02:30:38;;;;;;;44.80;30.90;;;10.60;99.90;;;;;;5086849;27;20847;-74
2021/10/09 02:33:06;;;;;;;37.63;29.10;;;10.60;99.90;;;;;;5086375;27;20027;-74
2021/10/09 02:35:33;;;;;;;38.67;28.55;;;10.50;99.90;;;;;;5066002;27;20032;-74
2021/10/09 02:38:00;;;;;;;40.90;29.77;;;10.50;99.90;;;;;;5082309;27;20043;-74
2021/10/09 02:40:27;;;;;;;39.22;30.17;;;10.50;99.90;;;;;;5082584;28;20039;-74
2021/10/09 02:42:54;;;;;;;46.20;32.97;;;10.50;99.90;;;;;;5082403;28;20040;-74
2021/10/09 02:45:22;;;;;;;42.05;32.10;;;10.40;99.90;;;;;;5069891;27;20043;-74
2021/10/09 02:47:49;;;;;;;41.70;32.63;;;10.40;99.90;;;;;;5068496;28;20048;-74
2021/10/09 02:50:17;;;;;;;37.03;28.80;;;10.40;99.90;;;;;;5053189;27;20043;-74
2021/10/09 02:52:47;;;;;;;34.22;26.40;;;10.40;99.90;;;;;;5052641;28;20047;-74
2021/10/09 02:55:18;;;;;;;38.53;28.00;;;10.40;99.90;;;;;;5066005;27;20043;-74
2021/10/09 02:57:45;;;;;;;39.22;30.23;;;10.40;99.90;;;;;;5049118;28;20044;-74
2021/10/09 03:00:13;;;;;;;45.17;33.42;;;10.30;99.90;;;;;;5085808;27;20388;-74
2021/10/09 03:02:40;;;;;;;43.13;31.52;;;10.30;99.90;;;;;;5081097;28;20622;-74
2021/10/09 03:05:08;;;;;;;40.00;29.83;;;10.30;99.90;;;;;;5081670;28;20391;-74
2021/10/09 03:07:35;;;;;;;42.13;29.67;;;10.30;99.90;;;;;;5086667;28;20039;-74
2021/10/09 03:10:03;;;;;;;37.05;28.83;;;10.20;99.90;;;;;;5066096;28;20043;-74
2021/10/09 03:12:31;;;;;;;35.22;26.58;;;10.30;99.90;;;;;;5072880;27;20561;-74
2021/10/09 03:14:57;;;;;;;32.13;24.40;;;10.20;99.90;;;;;;5067374;28;20453;-74
2021/10/09 03:17:24;;;;;;;32.03;24.08;;;10.20;99.90;;;;;;5032333;28;20051;-74
2021/10/09 03:19:50;;;;;;;40.83;29.52;;;10.10;99.90;;;;;;5112782;27;20279;-74
2021/10/09 03:22:17;;;;;;;40.58;27.80;;;10.10;99.90;;;;;;5085923;27;20067;-73
2021/10/09 03:24:44;;;;;;;37.42;28.58;;;10.10;99.90;;;;;;5086273;27;20472;-73
2021/10/09 03:27:12;;;;;;;36.60;27.65;;;10.10;99.90;;;;;;5058802;27;20513;-74
2021/10/09 03:29:38;;;;;;;41.13;30.17;;;10.00;99.90;;;;;;5052821;28;20083;-74
2021/10/09 03:32:05;;;;;;;39.03;28.48;;;10.00;99.90;;;;;;5052583;27;20070;-74
2021/10/09 03:34:35;;;;;;;37.63;27.40;;;10.00;99.90;;;;;;5084899;28;20054;-74
2021/10/09 03:37:03;;;;;;;38.60;27.70;;;10.00;99.90;;;;;;5053127;27;20700;-74
2021/10/09 03:39:32;;;;;;;36.42;28.83;;;10.00;99.90;;;;;;5051370;27;20036;-74
2021/10/09 03:42:05;;;;;;;38.33;29.02;;;10.00;99.90;;;;;;5086450;27;20039;-74
2021/10/09 03:44:36;;;;;;;49.75;34.78;;;9.90;99.90;;;;;;5084979;28;20514;-75
2021/10/09 03:47:16;;;;;;;42.70;31.40;;;9.90;99.90;;;;;;5073046;27;20039;-75
2021/10/09 03:52:38;;;;;;;39.92;28.75;;;9.90;99.90;;;;;;5073476;27;20050;-75
2021/10/09 03:55:09;;;;;;;38.50;28.55;;;9.80;99.90;;;;;;5083549;27;20035;-76
2021/10/09 03:57:36;;;;;;;39.50;26.02;;;9.80;99.90;;;;;;5109868;28;20038;-76
2021/10/09 04:00:05;;;;;;;41.97;30.83;;;9.80;99.90;;;;;;5081697;28;20411;-76
2021/10/09 04:02:42;;;;;;;43.90;32.08;;;9.80;99.90;;;;;;5081853;28;20038;-76
2021/10/09 04:05:11;;;;;;;40.42;28.67;;;9.80;99.90;;;;;;5063265;28;20035;-76
2021/10/09 04:07:39;;;;;;;40.33;29.33;;;9.80;99.90;;;;;;5067372;28;20058;-76
2021/10/09 04:10:06;;;;;;;39.75;29.10;;;9.80;99.90;;;;;;5058712;28;20133;-76
2021/10/09 04:12:33;;;;;;;47.40;33.05;;;9.70;99.90;;;;;;5060429;28;20043;-76
2021/10/09 04:15:01;;;;;;;41.33;30.02;;;9.70;99.90;;;;;;5052780;28;20043;-76
2021/10/09 04:17:27;;;;;;;38.15;28.05;;;9.70;99.90;;;;;;5112061;28;20035;-76
2021/10/09 04:19:54;;;;;;;38.08;26.40;;;9.70;99.90;;;;;;5085140;28;20032;-76
2021/10/09 04:22:21;;;;;;;38.80;28.73;;;9.60;99.90;;;;;;5052434;28;20062;-76
2021/10/09 04:24:47;;;;;;;39.38;27.45;;;9.60;99.90;;;;;;5082725;28;20051;-76
2021/10/09 04:27:14;;;;;;;37.83;27.95;;;9.60;99.90;;;;;;5084151;28;20043;-75
2021/10/09 04:29:42;;;;;;;35.20;27.33;;;9.60;99.90;;;;;;5080824;28;20416;-75
2021/10/09 04:32:10;;;;;;;40.05;28.70;;;9.60;99.90;;;;;;5065680;27;20036;-76
2021/10/09 04:34:36;;;;;;;42.67;29.67;;;9.60;99.90;;;;;;5081738;28;20039;-76
2021/10/09 04:37:03;;;;;;;43.92;32.22;;;9.60;99.90;;;;;;5046153;28;20040;-75
2021/10/09 04:39:32;;;;;;;39.70;28.70;;;9.50;99.90;;;;;;5060966;28;20051;-75
2021/10/09 04:42:02;;;;;;;39.88;29.15;;;9.50;99.90;;;;;;5073452;28;20385;-75
2021/10/09 04:44:30;;;;;;;40.70;29.75;;;9.50;99.90;;;;;;5054313;28;20088;-77
2021/10/09 04:46:56;;;;;;;41.13;30.92;;;9.50;99.90;;;;;;5056670;28;20832;-76
2021/10/09 04:49:23;;;;;;;51.25;33.50;;;9.40;99.90;;;;;;5079858;28;20045;-77
2021/10/09 04:51:51;;;;;;;56.22;37.55;;;9.50;99.90;;;;;;5084131;28;20054;-76
2021/10/09 04:54:19;;;;;;;49.05;33.95;;;9.40;99.90;;;;;;5051454;28;20126;-76
2021/10/09 04:56:47;;;;;;;50.15;33.17;;;9.50;99.90;;;;;;5049688;27;1089294;-76
2021/10/09 04:59:16;;;;;;;44.72;32.83;;;9.50;99.90;;;;;;5070437;28;20047;-77
2021/10/09 05:01:42;;;;;;;48.15;33.50;;;9.40;99.90;;;;;;5088281;28;20043;-75
2021/10/09 05:04:09;;;;;;;44.97;30.83;;;9.40;99.90;;;;;;5068976;27;20035;-75
2021/10/09 05:06:36;;;;;;;47.72;33.58;;;9.40;99.90;;;;;;5070620;27;20043;-75
2021/10/09 05:09:03;;;;;;;48.75;34.10;;;9.40;99.90;;;;;;5089086;27;20480;-75
2021/10/09 05:11:31;;;;;;;56.55;36.17;;;9.40;99.90;;;;;;5072867;27;20403;-75
2021/10/09 05:13:57;;;;;;;56.92;37.53;;;9.40;99.90;;;;;;5087556;27;20031;-75
2021/10/09 05:16:24;;;;;;;47.05;34.65;;;9.40;99.90;;;;;;5088900;27;20043;-75
2021/10/09 05:18:51;;;;;;;56.08;37.00;;;9.40;99.90;;;;;;5062883;27;20043;-75
2021/10/09 05:21:17;;;;;;;50.08;34.42;;;9.30;99.90;;;;;;5089257;27;20487;-75
2021/10/09 05:23:44;;;;;;;51.95;36.42;;;9.30;99.90;;;;;;5085658;27;20059;-75
2021/10/09 05:26:11;;;;;;;54.97;36.55;;;9.30;99.90;;;;;;5071226;27;20035;-75
2021/10/09 05:28:46;;;;;;;45.80;33.08;;;9.30;99.90;;;;;;5088205;27;20066;-76
2021/10/09 05:31:30;;;;;;;50.97;34.13;;;9.30;99.90;;;;;;5089139;27;20027;-76
2021/10/09 05:33:59;;;;;;;55.87;39.03;;;9.30;99.90;;;;;;5067445;27;20048;-74
2021/10/09 05:36:28;;;;;;;53.78;37.67;;;9.30;99.90;;;;;;5087178;27;20278;-75
2021/10/09 05:38:55;;;;;;;49.33;33.10;;;9.30;99.90;;;;;;5069919;27;20404;-75
2021/10/09 05:41:22;;;;;;;53.08;36.00;;;9.30;99.90;;;;;;5063405;27;20044;-75
2021/10/09 05:43:58;;;;;;;51.03;35.78;;;9.30;99.90;;;;;;5087394;27;20039;-75
2021/10/09 05:46:25;;;;;;;51.97;35.13;;;9.30;99.90;;;;;;5112548;27;20040;-75
2021/10/09 05:48:53;;;;;;;40.78;29.30;;;9.30;99.90;;;;;;5085261;27;20411;-75
2021/10/09 05:51:32;;;;;;;48.05;33.55;;;9.20;99.90;;;;;;5071694;27;20046;-75
2021/10/09 06:44:18;;;;;;;52.58;34.97;;;9.40;99.90;;;;;;5037689;28;20043;-77
2021/10/09 06:46:40;;;;;;;45.95;33.30;;;9.40;99.90;;;;;;5076012;28;20056;-77
2021/10/09 06:59:58;;;;;;;50.50;37.35;;;9.60;99.90;;;;;;5052024;28;20051;-77
2021/10/09 07:02:26;;;;;;;53.38;36.35;;;9.70;99.90;;;;;;5065484;28;20050;-76
2021/10/09 07:04:53;;;;;;;46.25;32.70;;;9.70;99.90;;;;;;5080815;28;20500;-76
2021/10/09 07:07:20;;;;;;;47.67;34.30;;;9.70;99.90;;;;;;5067624;28;20035;-77
2021/10/09 07:10:12;;;;;;;52.17;35.28;;;9.80;99.90;;;;;;5065481;28;20115;-76
2021/10/09 07:12:38;;;;;;;51.22;35.80;;;9.80;99.90;;;;;;5089863;28;20051;-77
2021/10/09 07:15:09;;;;;;;50.53;35.45;;;9.80;99.90;;;;;;5082173;28;20032;-77
2021/10/09 07:17:36;;;;;;;51.08;35.67;;;9.90;99.90;;;;;;5083342;28;20036;-76
2021/10/09 07:20:06;;;;;;;48.53;35.17;;;9.90;99.90;;;;;;5085098;28;20024;-76
2021/10/09 07:22:35;;;;;;;45.63;31.70;;;9.90;99.90;;;;;;5057284;28;20047;-77
2021/10/09 07:25:02;;;;;;;50.38;36.05;;;10.00;99.90;;;;;;5081784;28;20364;-77
2021/10/09 07:27:29;;;;;;;42.10;31.10;;;10.00;99.90;;;;;;5083981;28;20766;-77
2021/10/09 07:30:00;;;;;;;46.65;33.70;;;10.00;99.90;;;;;;5081936;28;20097;-77
2021/10/09 07:32:28;;;;;;;51.63;35.92;;;10.10;99.90;;;;;;5094491;28;20047;-77
2021/10/09 07:34:54;;;;;;;43.63;32.15;;;10.10;99.90;;;;;;5093348;28;20032;-77
2021/10/09 07:37:20;;;;;;;40.65;30.13;;;10.20;99.90;;;;;;5092100;28;20047;-77
2021/10/09 07:39:47;;;;;;;43.20;31.45;;;10.20;99.90;;;;;;5080051;28;20039;-77
2021/10/09 07:42:13;;;;;;;39.60;29.35;;;10.30;99.90;;;;;;5063994;28;20040;-77
2021/10/09 07:44:40;;;;;;;35.70;26.98;;;10.30;99.90;;;;;;5063139;28;20040;-77
2021/10/09 07:47:08;;;;;;;47.63;30.58;;;10.40;99.90;;;;;;5083079;28;20039;-77
2021/10/09 07:49:35;;;;;;;41.95;28.77;;;10.50;99.90;;;;;;5080986;28;21063;-76
2021/10/09 07:52:02;;;;;;;38.05;27.58;;;10.50;99.90;;;;;;5087508;28;20047;-77
2021/10/09 07:54:28;;;;;;;40.28;29.52;;;10.60;99.90;;;;;;5082145;28;20043;-76
2021/10/09 07:56:55;;;;;;;43.40;31.67;;;10.60;99.90;;;;;;5063891;28;20070;-77
2021/10/09 07:59:21;;;;;;;38.10;28.02;;;10.60;99.90;;;;;;5069018;28;20036;-77
2021/10/09 08:01:47;;;;;;;45.10;30.65;;;10.60;99.90;;;;;;5084742;28;20032;-77
2021/10/09 08:04:16;;;;;;;38.63;27.58;;;10.60;99.90;;;;;;5084213;28;20062;-77
2021/10/09 08:06:43;;;;;;;47.17;32.72;;;10.60;99.90;;;;;;5085920;28;20044;-77
2021/10/09 08:09:10;;;;;;;43.17;29.92;;;10.50;99.90;;;;;;5083619;28;20039;-77
2021/10/09 08:11:37;;;;;;;45.85;30.73;;;10.40;99.90;;;;;;5087268;28;20036;-77
2021/10/09 08:14:05;;;;;;;39.55;29.77;;;10.40;99.90;;;;;;5086661;28;20040;-77
2021/10/09 08:16:32;;;;;;;39.13;28.70;;;10.30;99.90;;;;;;5100889;28;20031;-76
2021/10/09 08:19:00;;;;;;;39.90;28.63;;;10.30;99.90;;;;;;5062276;28;20032;-77
2021/10/09 08:21:29;;;;;;;38.08;27.50;;;10.30;99.90;;;;;;5086641;28;20388;-77
2021/10/09 08:24:03;;;;;;;44.90;33.30;;;10.30;99.90;;;;;;5084332;28;20043;-77
2021/10/09 08:39:45;;;;;;;36.25;28.17;;;10.90;99.90;;;;;;5091066;28;20499;-77
2021/10/09 08:42:14;;;;;;;35.63;27.50;;;11.00;99.90;;;;;;5066355;28;20118;-77
2021/10/09 08:44:42;;;;;;;32.50;25.95;;;11.10;99.90;;;;;;5065922;28;20043;-77
2021/10/09 08:47:11;;;;;;;35.67;25.92;;;11.20;99.90;;;;;;5066042;28;20031;-77
2021/10/09 08:49:38;;;;;;;39.78;31.27;;;11.30;99.90;;;;;;5081180;28;20412;-77
2021/10/09 08:52:05;;;;;;;37.72;28.98;;;11.40;99.90;;;;;;5080539;28;20036;-78
2021/10/09 08:54:37;;;;;;;42.03;31.90;;;11.50;99.90;;;;;;5082863;28;20047;-77
2021/10/09 08:57:15;;;;;;;41.35;31.00;;;11.50;99.90;;;;;;5066489;28;20046;-77
2021/10/09 08:59:57;;;;;;;42.05;31.15;;;11.60;99.90;;;;;;5080579;28;20489;-77
2021/10/09 09:02:28;;;;;;;36.30;27.88;;;11.70;99.90;;;;;;5089441;28;20044;-76
2021/10/09 09:05:10;;;;;;;43.53;32.58;;;11.80;99.90;;;;;;5079791;28;20948;-77
2021/10/09 09:07:58;;;;;;;42.70;29.38;;;12.00;99.90;;;;;;5079852;28;20055;-77
2021/10/09 09:33:06;;;;;;;34.35;27.67;;;12.80;99.90;;;;;;5085146;28;20043;-76
2021/10/09 09:41:22;;;;;;;34.67;25.98;;;12.60;99.90;;;;;;5087121;28;20040;-75
2021/10/09 09:43:55;;;;;;;37.63;27.52;;;12.40;99.90;;;;;;5083260;28;20412;-76
2021/10/09 09:46:24;;;;;;;35.03;26.15;;;12.30;99.90;;;;;;5085531;28;20831;-75
2021/10/09 09:48:52;;;;;;;39.95;27.55;;;12.30;99.90;;;;;;5083248;28;20032;-76
2021/10/09 09:51:21;;;;;;;36.50;27.30;;;12.30;99.90;;;;;;5084592;28;20490;-75
2021/10/09 09:53:49;;;;;;;40.22;27.63;;;12.40;99.90;;;;;;5068053;28;20055;-76
2021/10/09 09:56:16;;;;;;;33.28;25.77;;;12.50;99.90;;;;;;5064371;28;20045;-76
2021/10/09 09:58:52;;;;;;;35.40;24.98;;;12.70;99.90;;;;;;5082746;28;20036;-76
2021/10/09 10:01:19;;;;;;;30.08;22.08;;;12.90;99.90;;;;;;5098208;28;20027;-76
2021/10/09 10:03:47;;;;;;;30.52;22.50;;;13.20;99.90;;;;;;5067754;28;20063;-76
2021/10/09 10:06:15;;;;;;;26.70;20.60;;;13.60;99.90;;;;;;5086576;28;20481;-76
2021/10/09 10:08:41;;;;;;;26.80;21.02;;;13.90;99.90;;;;;;5064917;28;20040;-76
2021/10/09 10:11:12;;;;;;;28.90;21.92;;;14.20;99.90;;;;;;5089090;28;20039;-77
2021/10/09 10:13:41;;;;;;;20.98;18.25;;;14.50;99.90;;;;;;5071646;28;20047;-77
2021/10/09 10:16:12;;;;;;;28.27;20.95;;;14.80;99.90;;;;;;5066853;28;20793;-78
2021/10/09 10:18:44;;;;;;;27.70;21.67;;;15.20;99.90;;;;;;5061886;28;20035;-77
2021/10/09 10:21:16;;;;;;;29.42;22.27;;;15.50;99.90;;;;;;5085493;28;20027;-77
2021/10/09 10:23:45;;;;;;;26.35;22.23;;;15.80;99.90;;;;;;5088381;28;20043;-77
2021/10/09 10:26:20;;;;;;;26.95;20.58;;;16.10;99.90;;;;;;5079532;28;20066;-77
2021/10/09 10:29:07;;;;;;;22.67;19.13;;;16.30;99.90;;;;;;5081290;28;20024;-77
2021/10/09 10:31:34;;;;;;;24.98;20.08;;;16.50;99.90;;;;;;5092234;28;20241;-77
2021/10/09 10:34:19;;;;;;;26.13;22.02;;;16.70;99.90;;;;;;5089977;28;20047;-77
2021/10/09 10:36:46;;;;;;;26.48;19.48;;;16.90;99.90;;;;;;5092089;28;20024;-77
2021/10/09 10:39:18;;;;;;;26.25;20.73;;;17.10;99.90;;;;;;5066552;28;20036;-77
2021/10/09 10:45:06;;;;;;;22.08;18.00;;;17.60;99.90;;;;;;5079698;28;20044;-79
2021/10/09 10:53:12;;;;;;;25.00;18.70;;;18.70;99.90;;;;;;5084998;28;20036;-79
2021/10/09 10:56:09;;;;;;;23.42;18.48;;;18.90;99.80;;;;;;5067443;28;20052;-79
2021/10/09 10:58:37;;;;;;;20.48;18.02;;;19.10;99.30;;;;;;5085625;28;20032;-80
2021/10/09 11:01:16;;;;;;;20.75;17.27;;;19.30;98.00;;;;;;5071671;27;20839;-80
2021/10/09 11:03:54;;;;;;;20.65;17.95;;;19.60;98.40;;;;;;5109139;27;20042;-76
2021/10/09 11:06:25;;;;;;;26.73;22.83;;;19.90;97.40;;;;;;5088252;27;20043;-77
2021/10/09 11:08:53;;;;;;;22.70;19.35;;;20.20;97.10;;;;;;5086095;27;20039;-77
2021/10/09 11:11:43;;;;;;;20.27;17.70;;;20.50;96.30;;;;;;5069371;27;20039;-77
2021/10/09 11:14:19;;;;;;;25.08;20.60;;;20.60;94.20;;;;;;5111011;27;20031;-77
2021/10/09 11:16:46;;;;;;;17.77;15.80;;;20.60;93.60;;;;;;5068839;27;20046;-77
2021/10/09 11:19:12;;;;;;;25.13;22.33;;;20.60;94.10;;;;;;5087570;27;20097;-77
2021/10/09 11:21:52;;;;;;;22.45;17.42;;;20.70;93.80;;;;;;5066792;28;20027;-77
2021/10/09 11:24:19;;;;;;;20.85;18.50;;;20.70;93.60;;;;;;5084823;27;20039;-76
2021/10/09 11:26:52;;;;;;;20.20;18.10;;;20.70;92.60;;;;;;5109016;27;20051;-77
2021/10/09 11:29:19;;;;;;;19.88;16.00;;;20.80;91.90;;;;;;5112955;27;20038;-76
2021/10/09 11:31:45;;;;;;;24.00;18.27;;;21.00;91.70;;;;;;5110868;27;20040;-76
2021/10/09 11:34:11;;;;;;;19.65;16.20;;;21.00;90.30;;;;;;5063850;28;20511;-76
2021/10/09 11:36:38;;;;;;;23.63;18.95;;;20.70;90.10;;;;;;5109181;27;20807;-77
2021/10/09 11:39:11;;;;;;;19.63;16.05;;;20.30;90.50;;;;;;5087160;27;20031;-77
2021/10/09 11:41:39;;;;;;;21.05;17.58;;;20.00;91.00;;;;;;5088935;27;20506;-76
2021/10/09 11:44:26;;;;;;;27.23;20.20;;;20.10;91.00;;;;;;5082895;28;20047;-76
2021/10/09 11:55:20;;;;;;;22.58;16.75;;;21.80;89.20;;;;;;5104986;27;20472;-76
2021/10/09 11:57:47;;;;;;;19.40;16.23;;;22.30;86.90;;;;;;5074674;27;20044;-76
2021/10/09 12:00:29;;;;;;;23.58;16.42;;;22.60;84.80;;;;;;5111774;27;20917;-76
2021/10/09 12:02:59;;;;;;;22.30;16.73;;;23.00;84.00;;;;;;5107171;27;20032;-76
2021/10/09 12:05:33;;;;;;;20.75;17.13;;;23.30;82.90;;;;;;5107003;27;20035;-75
2021/10/09 12:08:24;;;;;;;17.40;14.63;;;23.60;80.80;;;;;;5081890;27;20035;-76
2021/10/09 12:11:12;;;;;;;20.27;15.55;;;23.90;79.90;;;;;;5083631;27;20035;-75
2021/10/09 12:13:55;;;;;;;19.88;14.35;;;24.30;77.20;;;;;;5106091;27;20046;-75
2021/10/09 12:16:30;;;;;;;18.58;16.60;;;24.60;77.70;;;;;;5082764;27;20476;-76
2021/10/09 12:19:08;;;;;;;20.10;15.55;;;24.70;74.40;;;;;;5108400;27;20035;-75
2021/10/09 12:22:02;;;;;;;15.77;13.77;;;24.80;74.30;;;;;;5069912;28;20542;-75
2021/10/09 12:24:31;;;;;;;20.42;15.07;;;25.10;73.40;;;;;;5069292;28;20047;-76
2021/10/09 12:27:18;;;;;;;21.65;15.90;;;25.30;71.70;;;;;;5112865;28;20046;-75
2021/10/09 12:30:08;;;;;;;19.30;15.48;;;25.40;70.50;;;;;;5083731;28;20049;-75
2021/10/09 12:32:49;;;;;;;16.25;14.55;;;25.70;70.30;;;;;;5110850;28;20038;-76
2021/10/09 12:35:23;;;;;;;16.90;12.70;;;25.90;69.30;;;;;;5083319;28;20043;-76
2021/10/09 12:38:03;;;;;;;16.48;13.90;;;26.20;68.60;;;;;;5069334;28;20039;-76
2021/10/09 12:40:40;;;;;;;14.95;13.38;;;26.30;67.80;;;;;;5111871;28;20031;-76
2021/10/09 12:43:10;;;;;;;15.52;13.35;;;26.70;66.60;;;;;;5084112;28;20834;-76
2021/10/09 12:45:38;;;;;;;15.75;14.05;;;27.00;65.90;;;;;;5111621;28;20035;-76
2021/10/09 12:48:05;;;;;;;15.90;14.25;;;27.10;64.40;;;;;;5085996;27;20066;-76
2021/10/09 12:50:34;;;;;;;15.13;13.63;;;27.40;64.50;;;;;;5086016;28;20055;-76
2021/10/09 12:53:00;;;;;;;16.00;12.63;;;27.50;63.40;;;;;;5083287;28;20035;-76
2021/10/09 12:55:30;;;;;;;14.70;13.18;;;27.70;62.60;;;;;;5084697;28;20058;-76
2021/10/09 12:57:59;;;;;;;17.63;14.25;;;27.60;61.50;;;;;;5111576;27;20059;-76
2021/10/09 13:00:27;;;;;;;20.60;14.23;;;27.40;61.70;;;;;;5089411;28;20050;-76
2021/10/09 13:02:54;;;;;;;18.83;14.60;;;26.50;62.50;;;;;;5086877;27;20450;-76
2021/10/09 13:05:24;;;;;;;14.73;12.93;;;25.40;63.80;;;;;;5110700;27;20491;-76
2021/10/09 13:07:52;;;;;;;17.15;12.48;;;24.20;65.30;;;;;;5113344;27;20054;-76
2021/10/09 13:10:20;;;;;;;17.63;14.68;;;23.00;67.40;;;;;;5086536;27;20038;-75
2021/10/09 13:12:47;;;;;;;17.10;14.38;;;22.10;69.50;;;;;;5068338;27;20043;-75
2021/10/09 13:15:17;;;;;;;20.40;15.38;;;21.40;71.60;;;;;;5090173;27;20035;-75
2021/10/09 13:17:49;;;;;;;20.40;15.48;;;20.70;73.20;;;;;;5084053;27;20404;-75
2021/10/09 13:20:16;;;;;;;22.80;20.40;;;20.10;75.00;;;;;;5086125;27;20031;-75
2021/10/09 13:22:44;;;;;;;21.30;17.90;;;19.70;76.50;;;;;;5091420;27;20039;-75
2021/10/09 13:25:10;;;;;;;16.75;13.77;;;19.40;77.90;;;;;;5081334;27;20059;-75
2021/10/09 13:27:37;;;;;;;20.00;15.57;;;19.10;78.90;;;;;;5117255;27;20036;-75
2021/10/09 13:30:04;;;;;;;22.48;15.35;;;18.80;79.70;;;;;;5077975;28;20503;-76
2021/10/09 13:32:30;;;;;;;20.75;15.65;;;18.60;80.60;;;;;;5110181;27;20051;-75
2021/10/09 13:34:57;;;;;;;17.20;14.35;;;18.40;81.70;;;;;;5086599;27;20043;-75
2021/10/09 13:37:25;;;;;;;16.75;14.52;;;18.20;82.50;;;;;;5108658;27;20043;-75
2021/10/09 13:39:54;;;;;;;21.40;17.38;;;18.00;83.60;;;;;;5055281;27;20035;-76
2021/10/09 13:42:20;;;;;;;18.80;14.52;;;17.90;84.60;;;;;;5117386;27;20498;-76
2021/10/09 13:44:47;;;;;;;18.00;13.50;;;17.80;85.00;;;;;;5059030;27;20043;-76
2021/10/09 13:47:13;;;;;;;17.38;13.43;;;17.60;85.50;;;;;;5089270;27;20038;-75
2021/10/09 13:49:39;;;;;;;21.73;15.30;;;17.50;86.10;;;;;;5109944;27;20051;-75
2021/10/09 13:52:07;;;;;;;18.77;15.30;;;17.40;86.60;;;;;;5087880;27;20046;-75
2021/10/09 13:54:33;;;;;;;19.85;14.65;;;17.30;87.20;;;;;;5087154;27;20050;-75
2021/10/09 13:57:00;;;;;;;19.17;14.30;;;17.20;88.00;;;;;;5070960;27;20042;-75
2021/10/09 13:59:26;;;;;;;18.80;14.30;;;17.20;88.60;;;;;;5068639;27;20059;-76
2021/10/09 14:01:53;;;;;;;17.13;13.55;;;17.10;89.00;;;;;;5114725;27;20040;-76
2021/10/09 14:04:19;;;;;;;19.38;15.05;;;17.10;89.50;;;;;;5059528;27;20503;-76
2021/10/09 14:06:45;;;;;;;19.67;14.73;;;17.00;90.20;;;;;;5110372;27;20057;-76
2021/10/09 14:09:12;;;;;;;12.75;10.70;;;16.90;90.40;;;;;;5069546;27;20035;-76
2021/10/09 14:11:38;;;;;;;20.52;14.13;;;16.90;90.60;;;;;;5073494;27;20031;-76
2021/10/09 14:14:06;;;;;;;20.90;14.68;;;16.90;90.90;;;;;;5085738;27;20036;-75
2021/10/09 14:16:33;;;;;;;21.65;13.80;;;16.80;91.10;;;;;;5112718;27;20030;-76
2021/10/09 14:18:59;;;;;;;18.63;16.15;;;16.80;91.20;;;;;;5113016;27;20040;-75
2021/10/09 14:21:26;;;;;;;22.35;13.98;;;16.80;91.50;;;;;;5089447;27;20036;-75
2021/10/09 14:23:52;;;;;;;19.80;13.90;;;16.70;91.70;;;;;;5085367;27;20027;-75
2021/10/09 14:26:18;;;;;;;21.40;14.77;;;16.70;91.90;;;;;;5070352;27;20050;-76
2021/10/09 14:28:45;;;;;;;17.17;13.45;;;16.60;91.90;;;;;;5087181;27;20039;-75
2021/10/09 14:31:11;;;;;;;17.63;13.80;;;16.60;92.00;;;;;;5089983;28;20035;-76
2021/10/09 14:33:37;;;;;;;16.63;12.65;;;16.60;92.10;;;;;;5086212;27;20046;-75
2021/10/09 14:36:04;;;;;;;16.63;13.30;;;16.50;92.30;;;;;;5113557;27;20387;-77
2021/10/09 14:38:30;;;;;;;24.15;16.23;;;16.50;92.50;;;;;;5052308;27;20054;-76
2021/10/09 14:40:59;;;;;;;17.88;13.10;;;16.50;92.80;;;;;;5115944;27;20403;-77
2021/10/09 14:43:25;;;;;;;20.15;14.98;;;16.50;93.00;;;;;;5087066;27;20035;-77
2021/10/09 14:45:55;;;;;;;21.77;14.43;;;16.40;93.30;;;;;;5111670;27;20506;-76
2021/10/09 14:48:25;;;;;;;20.30;15.35;;;16.40;93.70;;;;;;5088207;27;20055;-76
2021/10/09 14:51:05;;;;;;;20.80;13.18;;;16.30;93.80;;;;;;5058399;27;20035;-77
2021/10/09 14:53:45;;;;;;;22.92;15.70;;;16.30;93.90;;;;;;5054541;27;20053;-76
2021/10/09 15:20:28;;;;;;;19.88;15.35;;;15.90;95.60;;;;;;5065548;27;20040;-76